sensor_id;sensor_type;location;lat;lon;timestamp;P1;durP1;ratioP1;P2;durP2;ratioP2
39356;SDS011;25077;50.302;18.996;2022-09-25T00:00:25;23.63;;;13.83;;
39356;SDS011;25077;50.302;18.996;2022-09-25T00:03:27;26.70;;;15.83;;
39356;SDS011;25077;50.302;18.996;2022-09-25T00:06:30;32.73;;;18.67;;
39356;SDS011;25077;50.302;18.996;2022-09-25T00:09:34;40.03;;;19.17;;
39356;SDS011;25077;50.302;18.996;2022-09-25T00:12:36;30.50;;;17.90;;
39356;SDS011;25077;50.302;18.996;2022-09-25T00:15:44;30.23;;;18.10;;
39356;SDS011;25077;50.302;18.996;2022-09-25T00:18:46;31.10;;;18.17;;
39356;SDS011;25077;50.302;18.996;2022-09-25T00:22:06;30.30;;;18.03;;
39356;SDS011;25077;50.302;18.996;2022-09-25T00:25:10;28.70;;;15.53;;
39356;SDS011;25077;50.302;18.996;2022-09-25T00:28:13;26.47;;;15.20;;
39356;SDS011;25077;50.302;18.996;2022-09-25T00:31:17;23.77;;;14.63;;
39356;SDS011;25077;50.302;18.996;2022-09-25T00:34:23;31.83;;;15.73;;
39356;SDS011;25077;50.302;18.996;2022-09-25T00:37:25;32.50;;;16.37;;
39356;SDS011;25077;50.302;18.996;2022-09-25T00:40:30;31.37;;;18.43;;
39356;SDS011;25077;50.302;18.996;2022-09-25T00:43:33;31.00;;;18.00;;
39356;SDS011;25077;50.302;18.996;2022-09-25T00:46:38;29.70;;;17.57;;
39356;SDS011;25077;50.302;18.996;2022-09-25T00:49:43;27.57;;;15.70;;
39356;SDS011;25077;50.302;18.996;2022-09-25T00:52:45;32.30;;;18.57;;
39356;SDS011;25077;50.302;18.996;2022-09-25T00:55:50;31.60;;;17.90;;
39356;SDS011;25077;50.302;18.996;2022-09-25T00:58:52;35.40;;;18.10;;
39356;SDS011;25077;50.302;18.996;2022-09-25T01:01:55;34.10;;;18.57;;
39356;SDS011;25077;50.302;18.996;2022-09-25T01:05:00;31.60;;;18.53;;
39356;SDS011;25077;50.302;18.996;2022-09-25T01:08:05;29.10;;;17.40;;
39356;SDS011;25077;50.302;18.996;2022-09-25T01:11:12;31.07;;;18.33;;
39356;SDS011;25077;50.302;18.996;2022-09-25T01:14:15;34.57;;;18.43;;
39356;SDS011;25077;50.302;18.996;2022-09-25T01:17:19;27.93;;;15.50;;
39356;SDS011;25077;50.302;18.996;2022-09-25T01:20:31;27.63;;;16.37;;
39356;SDS011;25077;50.302;18.996;2022-09-25T01:27:39;20.47;;;12.00;;
39356;SDS011;25077;50.302;18.996;2022-09-25T01:30:52;23.90;;;13.67;;
39356;SDS011;25077;50.302;18.996;2022-09-25T01:34:04;23.43;;;13.03;;
39356;SDS011;25077;50.302;18.996;2022-09-25T01:37:14;23.93;;;13.40;;
39356;SDS011;25077;50.302;18.996;2022-09-25T01:40:22;24.03;;;14.17;;
39356;SDS011;25077;50.302;18.996;2022-09-25T01:43:33;26.07;;;14.17;;
39356;SDS011;25077;50.302;18.996;2022-09-25T01:46:41;24.07;;;14.90;;
39356;SDS011;25077;50.302;18.996;2022-09-25T01:49:49;27.33;;;16.13;;
39356;SDS011;25077;50.302;18.996;2022-09-25T01:52:56;27.47;;;16.70;;
39356;SDS011;25077;50.302;18.996;2022-09-25T01:56:04;26.90;;;17.00;;
39356;SDS011;25077;50.302;18.996;2022-09-25T01:59:16;26.27;;;15.87;;
39356;SDS011;25077;50.302;18.996;2022-09-25T02:02:24;28.77;;;17.43;;
39356;SDS011;25077;50.302;18.996;2022-09-25T02:05:31;28.60;;;16.80;;
39356;SDS011;25077;50.302;18.996;2022-09-25T02:08:40;25.70;;;15.23;;
39356;SDS011;25077;50.302;18.996;2022-09-25T02:11:52;23.97;;;15.27;;
39356;SDS011;25077;50.302;18.996;2022-09-25T02:14:58;26.03;;;16.67;;
39356;SDS011;25077;50.302;18.996;2022-09-25T02:18:05;29.20;;;15.83;;
39356;SDS011;25077;50.302;18.996;2022-09-25T02:21:28;22.37;;;13.77;;
39356;SDS011;25077;50.302;18.996;2022-09-25T02:24:38;21.33;;;13.70;;
39356;SDS011;25077;50.302;18.996;2022-09-25T02:27:46;27.47;;;13.33;;
39356;SDS011;25077;50.302;18.996;2022-09-25T02:30:48;28.13;;;15.87;;
39356;SDS011;25077;50.302;18.996;2022-09-25T02:33:56;26.87;;;16.67;;
39356;SDS011;25077;50.302;18.996;2022-09-25T02:36:58;26.83;;;15.93;;
39356;SDS011;25077;50.302;18.996;2022-09-25T02:40:01;26.07;;;16.40;;
39356;SDS011;25077;50.302;18.996;2022-09-25T02:43:06;28.90;;;15.13;;
39356;SDS011;25077;50.302;18.996;2022-09-25T02:46:22;27.37;;;16.77;;
39356;SDS011;25077;50.302;18.996;2022-09-25T02:49:36;27.93;;;16.13;;
39356;SDS011;25077;50.302;18.996;2022-09-25T02:52:45;32.23;;;17.57;;
39356;SDS011;25077;50.302;18.996;2022-09-25T02:55:53;32.20;;;18.10;;
39356;SDS011;25077;50.302;18.996;2022-09-25T02:59:00;34.00;;;17.93;;
39356;SDS011;25077;50.302;18.996;2022-09-25T03:02:06;30.73;;;18.30;;
39356;SDS011;25077;50.302;18.996;2022-09-25T03:05:13;28.80;;;17.70;;
39356;SDS011;25077;50.302;18.996;2022-09-25T03:08:17;31.03;;;16.90;;
39356;SDS011;25077;50.302;18.996;2022-09-25T03:11:40;31.27;;;16.90;;
39356;SDS011;25077;50.302;18.996;2022-09-25T03:14:43;30.00;;;16.87;;
39356;SDS011;25077;50.302;18.996;2022-09-25T03:17:45;23.57;;;14.10;;
39356;SDS011;25077;50.302;18.996;2022-09-25T03:20:48;27.07;;;14.50;;
39356;SDS011;25077;50.302;18.996;2022-09-25T03:23:50;30.17;;;16.73;;
39356;SDS011;25077;50.302;18.996;2022-09-25T03:26:52;30.40;;;16.97;;
39356;SDS011;25077;50.302;18.996;2022-09-25T03:29:55;31.37;;;16.80;;
39356;SDS011;25077;50.302;18.996;2022-09-25T03:32:58;28.93;;;17.57;;
39356;SDS011;25077;50.302;18.996;2022-09-25T03:36:03;29.37;;;16.47;;
39356;SDS011;25077;50.302;18.996;2022-09-25T03:39:07;25.07;;;15.50;;
39356;SDS011;25077;50.302;18.996;2022-09-25T03:42:10;24.70;;;14.23;;
39356;SDS011;25077;50.302;18.996;2022-09-25T03:45:13;22.97;;;12.70;;
39356;SDS011;25077;50.302;18.996;2022-09-25T03:48:15;22.90;;;12.47;;
39356;SDS011;25077;50.302;18.996;2022-09-25T03:51:18;21.57;;;13.67;;
39356;SDS011;25077;50.302;18.996;2022-09-25T03:54:21;23.90;;;13.47;;
39356;SDS011;25077;50.302;18.996;2022-09-25T03:57:23;21.43;;;11.43;;
39356;SDS011;25077;50.302;18.996;2022-09-25T04:00:26;23.50;;;12.50;;
39356;SDS011;25077;50.302;18.996;2022-09-25T04:03:29;20.87;;;11.23;;
39356;SDS011;25077;50.302;18.996;2022-09-25T04:06:33;20.40;;;11.60;;
39356;SDS011;25077;50.302;18.996;2022-09-25T04:09:35;14.93;;;9.83;;
39356;SDS011;25077;50.302;18.996;2022-09-25T04:12:37;20.17;;;10.73;;
39356;SDS011;25077;50.302;18.996;2022-09-25T04:15:41;18.13;;;10.57;;
39356;SDS011;25077;50.302;18.996;2022-09-25T04:18:43;15.97;;;9.47;;
39356;SDS011;25077;50.302;18.996;2022-09-25T04:21:46;15.53;;;10.30;;
39356;SDS011;25077;50.302;18.996;2022-09-25T04:24:48;16.10;;;10.30;;
39356;SDS011;25077;50.302;18.996;2022-09-25T04:27:54;18.90;;;10.20;;
39356;SDS011;25077;50.302;18.996;2022-09-25T04:30:58;14.70;;;10.07;;
39356;SDS011;25077;50.302;18.996;2022-09-25T04:34:01;17.07;;;10.43;;
39356;SDS011;25077;50.302;18.996;2022-09-25T04:37:04;17.70;;;10.30;;
39356;SDS011;25077;50.302;18.996;2022-09-25T04:40:06;17.43;;;10.17;;
39356;SDS011;25077;50.302;18.996;2022-09-25T04:43:10;16.87;;;10.07;;
39356;SDS011;25077;50.302;18.996;2022-09-25T04:46:12;19.30;;;10.47;;
39356;SDS011;25077;50.302;18.996;2022-09-25T04:49:15;16.13;;;10.87;;
39356;SDS011;25077;50.302;18.996;2022-09-25T04:52:18;16.43;;;10.87;;
39356;SDS011;25077;50.302;18.996;2022-09-25T04:55:21;22.90;;;10.57;;
39356;SDS011;25077;50.302;18.996;2022-09-25T04:58:24;18.83;;;12.63;;
39356;SDS011;25077;50.302;18.996;2022-09-25T05:01:26;20.70;;;13.40;;
39356;SDS011;25077;50.302;18.996;2022-09-25T05:04:28;28.87;;;14.00;;
39356;SDS011;25077;50.302;18.996;2022-09-25T05:07:31;23.63;;;13.77;;
39356;SDS011;25077;50.302;18.996;2022-09-25T05:10:33;23.43;;;13.47;;
39356;SDS011;25077;50.302;18.996;2022-09-25T05:13:35;26.40;;;15.53;;
39356;SDS011;25077;50.302;18.996;2022-09-25T05:16:37;32.63;;;18.47;;
39356;SDS011;25077;50.302;18.996;2022-09-25T05:19:39;29.67;;;18.13;;
39356;SDS011;25077;50.302;18.996;2022-09-25T05:22:42;33.27;;;19.20;;
39356;SDS011;25077;50.302;18.996;2022-09-25T05:25:49;37.60;;;19.40;;
39356;SDS011;25077;50.302;18.996;2022-09-25T05:28:52;37.63;;;19.10;;
39356;SDS011;25077;50.302;18.996;2022-09-25T05:31:54;31.70;;;16.80;;
39356;SDS011;25077;50.302;18.996;2022-09-25T05:34:56;26.70;;;15.57;;
39356;SDS011;25077;50.302;18.996;2022-09-25T05:37:59;25.57;;;15.80;;
39356;SDS011;25077;50.302;18.996;2022-09-25T05:41:01;25.10;;;15.20;;
39356;SDS011;25077;50.302;18.996;2022-09-25T05:44:05;17.27;;;11.50;;
39356;SDS011;25077;50.302;18.996;2022-09-25T05:47:09;22.37;;;12.90;;
39356;SDS011;25077;50.302;18.996;2022-09-25T05:50:11;20.30;;;11.53;;
39356;SDS011;25077;50.302;18.996;2022-09-25T05:53:16;20.73;;;10.07;;
39356;SDS011;25077;50.302;18.996;2022-09-25T05:56:17;20.63;;;11.27;;
39356;SDS011;25077;50.302;18.996;2022-09-25T05:59:20;19.40;;;10.10;;
39356;SDS011;25077;50.302;18.996;2022-09-25T06:02:22;15.87;;;9.97;;
39356;SDS011;25077;50.302;18.996;2022-09-25T06:05:23;17.73;;;9.47;;
39356;SDS011;25077;50.302;18.996;2022-09-25T06:08:32;14.90;;;9.53;;
39356;SDS011;25077;50.302;18.996;2022-09-25T06:11:42;18.07;;;9.27;;
39356;SDS011;25077;50.302;18.996;2022-09-25T06:14:53;14.73;;;8.90;;
39356;SDS011;25077;50.302;18.996;2022-09-25T06:17:58;21.87;;;11.63;;
39356;SDS011;25077;50.302;18.996;2022-09-25T06:21:02;25.70;;;13.47;;
39356;SDS011;25077;50.302;18.996;2022-09-25T06:24:07;21.80;;;13.40;;
39356;SDS011;25077;50.302;18.996;2022-09-25T06:27:10;23.83;;;14.37;;
39356;SDS011;25077;50.302;18.996;2022-09-25T06:30:12;24.23;;;13.80;;
39356;SDS011;25077;50.302;18.996;2022-09-25T06:33:14;21.70;;;11.27;;
39356;SDS011;25077;50.302;18.996;2022-09-25T06:36:16;17.97;;;10.20;;
39356;SDS011;25077;50.302;18.996;2022-09-25T06:39:19;16.13;;;9.83;;
39356;SDS011;25077;50.302;18.996;2022-09-25T06:42:21;15.03;;;9.67;;
39356;SDS011;25077;50.302;18.996;2022-09-25T06:45:23;16.23;;;9.13;;
39356;SDS011;25077;50.302;18.996;2022-09-25T06:48:26;19.40;;;9.77;;
39356;SDS011;25077;50.302;18.996;2022-09-25T06:51:32;12.87;;;9.43;;
39356;SDS011;25077;50.302;18.996;2022-09-25T06:54:36;14.90;;;9.53;;
39356;SDS011;25077;50.302;18.996;2022-09-25T06:57:38;15.30;;;9.73;;
39356;SDS011;25077;50.302;18.996;2022-09-25T07:00:40;14.90;;;9.67;;
39356;SDS011;25077;50.302;18.996;2022-09-25T07:03:46;14.10;;;9.57;;
39356;SDS011;25077;50.302;18.996;2022-09-25T07:06:49;19.10;;;10.50;;
39356;SDS011;25077;50.302;18.996;2022-09-25T07:09:55;15.03;;;9.57;;
39356;SDS011;25077;50.302;18.996;2022-09-25T07:12:56;15.63;;;9.70;;
39356;SDS011;25077;50.302;18.996;2022-09-25T07:15:59;18.17;;;9.67;;
39356;SDS011;25077;50.302;18.996;2022-09-25T07:19:02;12.53;;;9.10;;
39356;SDS011;25077;50.302;18.996;2022-09-25T07:22:05;13.07;;;9.93;;
39356;SDS011;25077;50.302;18.996;2022-09-25T07:25:09;12.17;;;9.20;;
39356;SDS011;25077;50.302;18.996;2022-09-25T07:28:12;14.50;;;9.80;;
39356;SDS011;25077;50.302;18.996;2022-09-25T07:31:15;15.70;;;10.17;;
39356;SDS011;25077;50.302;18.996;2022-09-25T07:34:19;14.47;;;10.23;;
39356;SDS011;25077;50.302;18.996;2022-09-25T07:37:21;18.13;;;9.93;;
39356;SDS011;25077;50.302;18.996;2022-09-25T07:40:24;16.63;;;10.77;;
39356;SDS011;25077;50.302;18.996;2022-09-25T07:43:26;16.10;;;9.97;;
39356;SDS011;25077;50.302;18.996;2022-09-25T07:46:28;14.27;;;9.73;;
39356;SDS011;25077;50.302;18.996;2022-09-25T07:49:30;17.83;;;10.57;;
39356;SDS011;25077;50.302;18.996;2022-09-25T07:52:32;21.43;;;9.93;;
39356;SDS011;25077;50.302;18.996;2022-09-25T07:55:36;15.80;;;9.97;;
39356;SDS011;25077;50.302;18.996;2022-09-25T07:58:38;23.50;;;10.97;;
39356;SDS011;25077;50.302;18.996;2022-09-25T08:01:41;22.97;;;12.73;;
39356;SDS011;25077;50.302;18.996;2022-09-25T08:04:43;16.97;;;10.40;;
39356;SDS011;25077;50.302;18.996;2022-09-25T08:07:44;18.33;;;10.97;;
39356;SDS011;25077;50.302;18.996;2022-09-25T08:10:48;15.23;;;10.40;;
39356;SDS011;25077;50.302;18.996;2022-09-25T08:13:50;15.73;;;9.73;;
39356;SDS011;25077;50.302;18.996;2022-09-25T08:16:52;16.40;;;10.03;;
39356;SDS011;25077;50.302;18.996;2022-09-25T08:19:55;16.63;;;9.90;;
39356;SDS011;25077;50.302;18.996;2022-09-25T08:22:57;15.27;;;9.03;;
39356;SDS011;25077;50.302;18.996;2022-09-25T08:26:00;14.97;;;9.60;;
39356;SDS011;25077;50.302;18.996;2022-09-25T08:29:02;14.57;;;10.07;;
39356;SDS011;25077;50.302;18.996;2022-09-25T08:32:04;15.30;;;9.30;;
39356;SDS011;25077;50.302;18.996;2022-09-25T08:35:07;15.37;;;9.83;;
39356;SDS011;25077;50.302;18.996;2022-09-25T08:38:09;13.37;;;8.40;;
39356;SDS011;25077;50.302;18.996;2022-09-25T08:41:13;12.70;;;8.57;;
39356;SDS011;25077;50.302;18.996;2022-09-25T08:44:20;11.80;;;8.50;;
39356;SDS011;25077;50.302;18.996;2022-09-25T08:47:25;12.47;;;8.27;;
39356;SDS011;25077;50.302;18.996;2022-09-25T08:50:46;14.33;;;8.70;;
39356;SDS011;25077;50.302;18.996;2022-09-25T08:53:49;10.90;;;8.40;;
39356;SDS011;25077;50.302;18.996;2022-09-25T08:56:54;12.00;;;8.53;;
39356;SDS011;25077;50.302;18.996;2022-09-25T08:59:58;11.00;;;7.73;;
39356;SDS011;25077;50.302;18.996;2022-09-25T09:03:03;12.53;;;7.90;;
39356;SDS011;25077;50.302;18.996;2022-09-25T09:06:06;14.10;;;8.13;;
39356;SDS011;25077;50.302;18.996;2022-09-25T09:09:16;12.43;;;7.93;;
39356;SDS011;25077;50.302;18.996;2022-09-25T09:12:25;10.63;;;7.60;;
39356;SDS011;25077;50.302;18.996;2022-09-25T09:15:33;11.57;;;7.50;;
39356;SDS011;25077;50.302;18.996;2022-09-25T09:18:40;10.37;;;7.37;;
39356;SDS011;25077;50.302;18.996;2022-09-25T09:21:44;14.30;;;8.00;;
39356;SDS011;25077;50.302;18.996;2022-09-25T09:24:53;12.23;;;7.77;;
39356;SDS011;25077;50.302;18.996;2022-09-25T09:28:09;12.50;;;8.07;;
39356;SDS011;25077;50.302;18.996;2022-09-25T09:31:24;13.23;;;8.67;;
39356;SDS011;25077;50.302;18.996;2022-09-25T09:34:36;14.20;;;8.37;;
39356;SDS011;25077;50.302;18.996;2022-09-25T09:37:59;14.73;;;8.43;;
39356;SDS011;25077;50.302;18.996;2022-09-25T09:41:10;14.87;;;9.00;;
39356;SDS011;25077;50.302;18.996;2022-09-25T09:44:26;14.73;;;9.23;;
39356;SDS011;25077;50.302;18.996;2022-09-25T09:47:40;15.13;;;9.20;;
39356;SDS011;25077;50.302;18.996;2022-09-25T09:50:50;12.03;;;8.63;;
39356;SDS011;25077;50.302;18.996;2022-09-25T09:54:02;12.07;;;8.67;;
39356;SDS011;25077;50.302;18.996;2022-09-25T09:57:14;14.13;;;9.67;;
39356;SDS011;25077;50.302;18.996;2022-09-25T10:00:21;15.27;;;8.90;;
39356;SDS011;25077;50.302;18.996;2022-09-25T10:03:25;18.20;;;9.40;;
39356;SDS011;25077;50.302;18.996;2022-09-25T10:06:31;14.80;;;8.53;;
39356;SDS011;25077;50.302;18.996;2022-09-25T10:09:36;16.80;;;10.27;;
39356;SDS011;25077;50.302;18.996;2022-09-25T10:12:38;16.93;;;11.47;;
39356;SDS011;25077;50.302;18.996;2022-09-25T10:15:46;14.43;;;9.97;;
39356;SDS011;25077;50.302;18.996;2022-09-25T10:18:52;18.00;;;10.60;;
39356;SDS011;25077;50.302;18.996;2022-09-25T10:22:02;18.27;;;10.50;;
39356;SDS011;25077;50.302;18.996;2022-09-25T10:25:07;15.00;;;10.60;;
39356;SDS011;25077;50.302;18.996;2022-09-25T10:28:25;14.67;;;10.70;;
39356;SDS011;25077;50.302;18.996;2022-09-25T10:31:31;14.97;;;10.20;;
39356;SDS011;25077;50.302;18.996;2022-09-25T10:34:34;19.77;;;12.60;;
39356;SDS011;25077;50.302;18.996;2022-09-25T10:37:40;19.00;;;13.30;;
39356;SDS011;25077;50.302;18.996;2022-09-25T10:40:42;16.90;;;11.53;;
39356;SDS011;25077;50.302;18.996;2022-09-25T10:43:50;22.53;;;13.27;;
39356;SDS011;25077;50.302;18.996;2022-09-25T10:46:55;19.30;;;14.20;;
39356;SDS011;25077;50.302;18.996;2022-09-25T10:50:16;19.63;;;13.83;;
39356;SDS011;25077;50.302;18.996;2022-09-25T10:53:22;18.77;;;12.63;;
39356;SDS011;25077;50.302;18.996;2022-09-25T10:56:29;18.63;;;12.97;;
39356;SDS011;25077;50.302;18.996;2022-09-25T10:59:35;20.30;;;14.43;;
39356;SDS011;25077;50.302;18.996;2022-09-25T11:02:39;19.87;;;13.90;;
39356;SDS011;25077;50.302;18.996;2022-09-25T11:05:48;24.60;;;15.30;;
39356;SDS011;25077;50.302;18.996;2022-09-25T11:09:01;23.93;;;14.40;;
39356;SDS011;25077;50.302;18.996;2022-09-25T11:12:10;21.80;;;13.83;;
39356;SDS011;25077;50.302;18.996;2022-09-25T11:15:18;18.07;;;12.80;;
39356;SDS011;25077;50.302;18.996;2022-09-25T11:18:33;18.17;;;11.73;;
39356;SDS011;25077;50.302;18.996;2022-09-25T11:21:44;18.00;;;12.10;;
39356;SDS011;25077;50.302;18.996;2022-09-25T11:24:52;16.53;;;11.30;;
39356;SDS011;25077;50.302;18.996;2022-09-25T11:28:03;17.17;;;10.40;;
39356;SDS011;25077;50.302;18.996;2022-09-25T11:31:14;15.88;;;11.25;;
39356;SDS011;25077;50.302;18.996;2022-09-25T11:34:29;16.88;;;10.00;;
39356;SDS011;25077;50.302;18.996;2022-09-25T11:37:46;11.02;;;8.48;;
39356;SDS011;25077;50.302;18.996;2022-09-25T11:40:55;12.90;;;8.52;;
39356;SDS011;25077;50.302;18.996;2022-09-25T11:44:17;12.38;;;8.75;;
39356;SDS011;25077;50.302;18.996;2022-09-25T11:47:27;9.98;;;7.10;;
39356;SDS011;25077;50.302;18.996;2022-09-25T11:50:39;11.23;;;8.80;;
39356;SDS011;25077;50.302;18.996;2022-09-25T11:53:48;14.32;;;9.70;;
39356;SDS011;25077;50.302;18.996;2022-09-25T11:56:55;14.00;;;8.43;;
39356;SDS011;25077;50.302;18.996;2022-09-25T12:00:06;12.87;;;7.60;;
39356;SDS011;25077;50.302;18.996;2022-09-25T12:03:18;9.67;;;7.77;;
39356;SDS011;25077;50.302;18.996;2022-09-25T12:06:37;11.40;;;8.40;;
39356;SDS011;25077;50.302;18.996;2022-09-25T12:09:57;11.13;;;7.10;;
39356;SDS011;25077;50.302;18.996;2022-09-25T12:13:09;12.70;;;8.83;;
39356;SDS011;25077;50.302;18.996;2022-09-25T12:16:17;11.27;;;8.50;;
39356;SDS011;25077;50.302;18.996;2022-09-25T12:19:26;11.83;;;8.20;;
39356;SDS011;25077;50.302;18.996;2022-09-25T12:22:42;14.67;;;9.13;;
39356;SDS011;25077;50.302;18.996;2022-09-25T12:25:54;12.10;;;9.07;;
39356;SDS011;25077;50.302;18.996;2022-09-25T12:29:10;15.70;;;9.90;;
39356;SDS011;25077;50.302;18.996;2022-09-25T12:32:27;12.20;;;9.73;;
39356;SDS011;25077;50.302;18.996;2022-09-25T12:35:39;13.67;;;9.93;;
39356;SDS011;25077;50.302;18.996;2022-09-25T12:38:48;15.50;;;10.10;;
39356;SDS011;25077;50.302;18.996;2022-09-25T12:41:55;14.57;;;9.93;;
39356;SDS011;25077;50.302;18.996;2022-09-25T12:45:10;14.90;;;9.77;;
39356;SDS011;25077;50.302;18.996;2022-09-25T12:48:16;13.60;;;9.23;;
39356;SDS011;25077;50.302;18.996;2022-09-25T12:51:25;14.83;;;8.83;;
39356;SDS011;25077;50.302;18.996;2022-09-25T12:54:38;13.33;;;9.80;;
39356;SDS011;25077;50.302;18.996;2022-09-25T12:57:47;12.77;;;9.80;;
39356;SDS011;25077;50.302;18.996;2022-09-25T13:00:56;14.90;;;11.03;;
39356;SDS011;25077;50.302;18.996;2022-09-25T13:04:09;15.03;;;10.70;;
39356;SDS011;25077;50.302;18.996;2022-09-25T13:07:26;15.93;;;10.97;;
39356;SDS011;25077;50.302;18.996;2022-09-25T13:10:37;15.57;;;11.30;;
39356;SDS011;25077;50.302;18.996;2022-09-25T13:13:47;13.63;;;10.57;;
39356;SDS011;25077;50.302;18.996;2022-09-25T13:16:53;10.63;;;8.70;;
39356;SDS011;25077;50.302;18.996;2022-09-25T13:20:07;13.20;;;8.57;;
39356;SDS011;25077;50.302;18.996;2022-09-25T13:23:48;9.80;;;7.70;;
39356;SDS011;25077;50.302;18.996;2022-09-25T13:26:53;16.33;;;8.67;;
39356;SDS011;25077;50.302;18.996;2022-09-25T13:30:02;10.47;;;8.10;;
39356;SDS011;25077;50.302;18.996;2022-09-25T13:33:14;14.73;;;8.73;;
39356;SDS011;25077;50.302;18.996;2022-09-25T13:36:33;13.23;;;8.53;;
39356;SDS011;25077;50.302;18.996;2022-09-25T13:39:39;12.97;;;8.43;;
39356;SDS011;25077;50.302;18.996;2022-09-25T13:43:15;13.83;;;8.27;;
39356;SDS011;25077;50.302;18.996;2022-09-25T13:46:23;13.47;;;8.37;;
39356;SDS011;25077;50.302;18.996;2022-09-25T13:49:33;13.00;;;7.80;;
39356;SDS011;25077;50.302;18.996;2022-09-25T13:52:51;12.23;;;8.20;;
39356;SDS011;25077;50.302;18.996;2022-09-25T13:56:22;13.10;;;8.10;;
39356;SDS011;25077;50.302;18.996;2022-09-25T13:59:35;14.53;;;8.53;;
39356;SDS011;25077;50.302;18.996;2022-09-25T14:02:42;12.93;;;8.50;;
39356;SDS011;25077;50.302;18.996;2022-09-25T14:05:45;12.60;;;8.27;;
39356;SDS011;25077;50.302;18.996;2022-09-25T14:08:49;13.47;;;8.60;;
39356;SDS011;25077;50.302;18.996;2022-09-25T14:11:59;12.73;;;8.77;;
39356;SDS011;25077;50.302;18.996;2022-09-25T14:15:11;14.43;;;8.60;;
39356;SDS011;25077;50.302;18.996;2022-09-25T14:18:19;11.87;;;8.30;;
39356;SDS011;25077;50.302;18.996;2022-09-25T14:21:25;13.17;;;8.57;;
39356;SDS011;25077;50.302;18.996;2022-09-25T14:24:30;12.50;;;7.67;;
39356;SDS011;25077;50.302;18.996;2022-09-25T14:27:32;12.97;;;7.93;;
39356;SDS011;25077;50.302;18.996;2022-09-25T14:30:34;10.60;;;7.00;;
39356;SDS011;25077;50.302;18.996;2022-09-25T14:33:50;13.27;;;6.83;;
39356;SDS011;25077;50.302;18.996;2022-09-25T14:37:13;11.03;;;7.23;;
39356;SDS011;25077;50.302;18.996;2022-09-25T14:40:29;10.80;;;6.90;;
39356;SDS011;25077;50.302;18.996;2022-09-25T14:43:40;9.30;;;6.83;;
39356;SDS011;25077;50.302;18.996;2022-09-25T14:46:53;8.20;;;5.83;;
39356;SDS011;25077;50.302;18.996;2022-09-25T14:49:56;10.30;;;6.37;;
39356;SDS011;25077;50.302;18.996;2022-09-25T14:53:00;8.60;;;5.90;;
39356;SDS011;25077;50.302;18.996;2022-09-25T14:56:11;8.43;;;6.20;;
39356;SDS011;25077;50.302;18.996;2022-09-25T14:59:15;9.63;;;6.27;;
39356;SDS011;25077;50.302;18.996;2022-09-25T15:02:30;10.53;;;6.50;;
39356;SDS011;25077;50.302;18.996;2022-09-25T15:05:34;12.53;;;6.83;;
39356;SDS011;25077;50.302;18.996;2022-09-25T15:08:37;8.90;;;6.20;;
39356;SDS011;25077;50.302;18.996;2022-09-25T15:11:53;7.57;;;5.43;;
39356;SDS011;25077;50.302;18.996;2022-09-25T15:14:56;8.83;;;6.13;;
39356;SDS011;25077;50.302;18.996;2022-09-25T15:18:12;11.87;;;6.00;;
39356;SDS011;25077;50.302;18.996;2022-09-25T15:21:16;8.53;;;6.23;;
39356;SDS011;25077;50.302;18.996;2022-09-25T15:24:24;8.23;;;6.10;;
39356;SDS011;25077;50.302;18.996;2022-09-25T15:27:31;9.43;;;6.13;;
39356;SDS011;25077;50.302;18.996;2022-09-25T15:30:35;11.20;;;5.90;;
39356;SDS011;25077;50.302;18.996;2022-09-25T15:33:39;11.10;;;6.20;;
39356;SDS011;25077;50.302;18.996;2022-09-25T15:36:42;9.97;;;6.40;;
39356;SDS011;25077;50.302;18.996;2022-09-25T15:39:44;9.40;;;6.07;;
39356;SDS011;25077;50.302;18.996;2022-09-25T15:42:48;8.13;;;6.00;;
39356;SDS011;25077;50.302;18.996;2022-09-25T15:45:53;7.33;;;6.10;;
39356;SDS011;25077;50.302;18.996;2022-09-25T15:48:58;9.80;;;6.90;;
39356;SDS011;25077;50.302;18.996;2022-09-25T15:52:02;10.87;;;6.93;;
39356;SDS011;25077;50.302;18.996;2022-09-25T15:55:09;11.00;;;7.00;;
39356;SDS011;25077;50.302;18.996;2022-09-25T15:58:16;10.60;;;7.83;;
39356;SDS011;25077;50.302;18.996;2022-09-25T16:01:22;13.37;;;7.60;;
39356;SDS011;25077;50.302;18.996;2022-09-25T16:04:46;11.27;;;7.57;;
39356;SDS011;25077;50.302;18.996;2022-09-25T16:07:50;11.03;;;7.80;;
39356;SDS011;25077;50.302;18.996;2022-09-25T16:11:03;10.50;;;7.57;;
39356;SDS011;25077;50.302;18.996;2022-09-25T16:14:24;10.90;;;7.80;;
39356;SDS011;25077;50.302;18.996;2022-09-25T16:17:30;10.53;;;7.60;;
39356;SDS011;25077;50.302;18.996;2022-09-25T16:20:36;11.33;;;7.40;;
39356;SDS011;25077;50.302;18.996;2022-09-25T16:23:39;11.93;;;7.77;;
39356;SDS011;25077;50.302;18.996;2022-09-25T16:26:42;13.23;;;8.60;;
39356;SDS011;25077;50.302;18.996;2022-09-25T16:29:47;13.67;;;7.90;;
39356;SDS011;25077;50.302;18.996;2022-09-25T16:32:50;14.47;;;8.37;;
39356;SDS011;25077;50.302;18.996;2022-09-25T16:35:54;16.33;;;9.00;;
39356;SDS011;25077;50.302;18.996;2022-09-25T16:39:09;15.43;;;8.47;;
39356;SDS011;25077;50.302;18.996;2022-09-25T16:42:28;12.27;;;7.73;;
39356;SDS011;25077;50.302;18.996;2022-09-25T16:45:36;14.40;;;8.90;;
39356;SDS011;25077;50.302;18.996;2022-09-25T16:48:58;13.70;;;9.23;;
39356;SDS011;25077;50.302;18.996;2022-09-25T16:52:02;11.97;;;8.43;;
39356;SDS011;25077;50.302;18.996;2022-09-25T16:55:10;13.10;;;8.30;;
39356;SDS011;25077;50.302;18.996;2022-09-25T16:58:16;14.33;;;8.17;;
39356;SDS011;25077;50.302;18.996;2022-09-25T17:01:20;10.70;;;8.00;;
39356;SDS011;25077;50.302;18.996;2022-09-25T17:04:25;12.33;;;8.47;;
39356;SDS011;25077;50.302;18.996;2022-09-25T17:07:29;13.70;;;8.57;;
39356;SDS011;25077;50.302;18.996;2022-09-25T17:10:31;13.03;;;8.73;;
39356;SDS011;25077;50.302;18.996;2022-09-25T17:13:33;13.73;;;9.10;;
39356;SDS011;25077;50.302;18.996;2022-09-25T17:16:36;20.73;;;8.77;;
39356;SDS011;25077;50.302;18.996;2022-09-25T17:19:38;14.10;;;8.53;;
39356;SDS011;25077;50.302;18.996;2022-09-25T17:22:40;14.40;;;9.47;;
39356;SDS011;25077;50.302;18.996;2022-09-25T17:25:43;12.40;;;8.83;;
39356;SDS011;25077;50.302;18.996;2022-09-25T17:28:48;15.07;;;8.83;;
39356;SDS011;25077;50.302;18.996;2022-09-25T17:31:52;17.50;;;9.47;;
39356;SDS011;25077;50.302;18.996;2022-09-25T17:34:54;15.93;;;9.70;;
39356;SDS011;25077;50.302;18.996;2022-09-25T17:37:57;15.77;;;10.13;;
39356;SDS011;25077;50.302;18.996;2022-09-25T17:41:01;16.23;;;9.37;;
39356;SDS011;25077;50.302;18.996;2022-09-25T17:44:04;13.47;;;9.67;;
39356;SDS011;25077;50.302;18.996;2022-09-25T17:47:09;15.90;;;9.57;;
39356;SDS011;25077;50.302;18.996;2022-09-25T17:50:12;17.07;;;9.60;;
39356;SDS011;25077;50.302;18.996;2022-09-25T17:53:15;15.17;;;9.43;;
39356;SDS011;25077;50.302;18.996;2022-09-25T17:56:19;13.80;;;9.53;;
39356;SDS011;25077;50.302;18.996;2022-09-25T17:59:21;16.27;;;9.77;;
39356;SDS011;25077;50.302;18.996;2022-09-25T18:02:25;15.83;;;10.10;;
39356;SDS011;25077;50.302;18.996;2022-09-25T18:05:29;14.50;;;9.10;;
39356;SDS011;25077;50.302;18.996;2022-09-25T18:08:31;16.63;;;9.30;;